sensor_id;sensor_type;location;lat;lon;timestamp;temperature;humidity
5061;DHT22;2549;52.128;21.068;2024-03-06T00:01:58;10.30;99.90
5061;DHT22;2549;52.128;21.068;2024-03-06T00:04:25;10.30;99.90
5061;DHT22;2549;52.128;21.068;2024-03-06T00:06:51;10.30;99.90
5061;DHT22;2549;52.128;21.068;2024-03-06T00:09:20;10.30;99.90
5061;DHT22;2549;52.128;21.068;2024-03-06T00:11:47;10.30;99.90
5061;DHT22;2549;52.128;21.068;2024-03-06T00:14:14;10.30;99.90
5061;DHT22;2549;52.128;21.068;2024-03-06T00:19:20;10.30;99.90
5061;DHT22;2549;52.128;21.068;2024-03-06T00:21:47;10.30;99.90
5061;DHT22;2549;52.128;21.068;2024-03-06T00:24:15;10.30;99.90
5061;DHT22;2549;52.128;21.068;2024-03-06T00:26:43;10.40;99.90
5061;DHT22;2549;52.128;21.068;2024-03-06T00:29:11;10.40;99.90
5061;DHT22;2549;52.128;21.068;2024-03-06T00:31:43;10.40;99.90
5061;DHT22;2549;52.128;21.068;2024-03-06T00:34:10;10.40;99.90
5061;DHT22;2549;52.128;21.068;2024-03-06T00:36:40;10.40;99.90
5061;DHT22;2549;52.128;21.068;2024-03-06T00:39:07;10.40;99.90
5061;DHT22;2549;52.128;21.068;2024-03-06T00:41:35;10.40;99.90
5061;DHT22;2549;52.128;21.068;2024-03-06T00:44:03;10.40;99.90
5061;DHT22;2549;52.128;21.068;2024-03-06T00:46:30;10.40;99.90
5061;DHT22;2549;52.128;21.068;2024-03-06T00:48:57;10.50;99.90
5061;DHT22;2549;52.128;21.068;2024-03-06T00:51:24;10.50;99.90
5061;DHT22;2549;52.128;21.068;2024-03-06T00:54:07;10.50;99.90
5061;DHT22;2549;52.128;21.068;2024-03-06T00:56:37;10.50;99.90
5061;DHT22;2549;52.128;21.068;2024-03-06T00:59:05;10.50;99.90
5061;DHT22;2549;52.128;21.068;2024-03-06T01:01:32;10.50;99.90
5061;DHT22;2549;52.128;21.068;2024-03-06T01:03:59;10.50;99.90
5061;DHT22;2549;52.128;21.068;2024-03-06T01:06:26;10.50;99.90
5061;DHT22;2549;52.128;21.068;2024-03-06T01:08:53;10.50;99.90
5061;DHT22;2549;52.128;21.068;2024-03-06T01:11:21;10.50;99.90
5061;DHT22;2549;52.128;21.068;2024-03-06T01:13:48;10.50;99.90
5061;DHT22;2549;52.128;21.068;2024-03-06T01:16:15;10.50;99.90
5061;DHT22;2549;52.128;21.068;2024-03-06T01:18:42;10.50;99.90
5061;DHT22;2549;52.128;21.068;2024-03-06T01:21:09;10.50;99.90
5061;DHT22;2549;52.128;21.068;2024-03-06T01:23:36;10.50;99.90
5061;DHT22;2549;52.128;21.068;2024-03-06T01:26:03;10.60;99.90
5061;DHT22;2549;52.128;21.068;2024-03-06T01:28:30;10.60;99.90
5061;DHT22;2549;52.128;21.068;2024-03-06T01:30:57;10.60;99.90
5061;DHT22;2549;52.128;21.068;2024-03-06T01:33:25;10.60;99.90
5061;DHT22;2549;52.128;21.068;2024-03-06T01:35:53;10.60;99.90
5061;DHT22;2549;52.128;21.068;2024-03-06T01:38:20;10.60;99.90
5061;DHT22;2549;52.128;21.068;2024-03-06T01:40:47;10.50;99.90
5061;DHT22;2549;52.128;21.068;2024-03-06T01:43:21;10.50;99.90
5061;DHT22;2549;52.128;21.068;2024-03-06T01:45:50;10.50;99.90
5061;DHT22;2549;52.128;21.068;2024-03-06T01:48:23;10.50;99.90
5061;DHT22;2549;52.128;21.068;2024-03-06T01:50:50;10.50;99.90
5061;DHT22;2549;52.128;21.068;2024-03-06T01:53:18;10.50;99.90
5061;DHT22;2549;52.128;21.068;2024-03-06T01:55:45;10.50;99.90
5061;DHT22;2549;52.128;21.068;2024-03-06T01:58:13;10.50;99.90
5061;DHT22;2549;52.128;21.068;2024-03-06T02:00:40;10.50;99.90
5061;DHT22;2549;52.128;21.068;2024-03-06T02:03:07;10.50;99.90
5061;DHT22;2549;52.128;21.068;2024-03-06T02:05:35;10.60;99.90
5061;DHT22;2549;52.128;21.068;2024-03-06T02:08:03;10.60;99.90
5061;DHT22;2549;52.128;21.068;2024-03-06T02:10:31;10.60;99.90
5061;DHT22;2549;52.128;21.068;2024-03-06T02:12:58;10.60;99.90
5061;DHT22;2549;52.128;21.068;2024-03-06T02:15:25;10.60;99.90
5061;DHT22;2549;52.128;21.068;2024-03-06T02:17:52;10.60;99.90
5061;DHT22;2549;52.128;21.068;2024-03-06T02:20:22;10.60;99.90
5061;DHT22;2549;52.128;21.068;2024-03-06T02:22:49;10.60;99.90
5061;DHT22;2549;52.128;21.068;2024-03-06T02:25:17;10.60;99.90
5061;DHT22;2549;52.128;21.068;2024-03-06T02:27:44;10.60;99.90
5061;DHT22;2549;52.128;21.068;2024-03-06T02:30:11;10.60;99.90
5061;DHT22;2549;52.128;21.068;2024-03-06T02:32:38;10.60;99.90
5061;DHT22;2549;52.128;21.068;2024-03-06T02:35:05;10.60;99.90
5061;DHT22;2549;52.128;21.068;2024-03-06T02:37:35;10.60;99.90
5061;DHT22;2549;52.128;21.068;2024-03-06T02:40:03;10.60;99.90
5061;DHT22;2549;52.128;21.068;2024-03-06T02:42:30;10.50;99.90
5061;DHT22;2549;52.128;21.068;2024-03-06T02:44:57;10.50;99.90
5061;DHT22;2549;52.128;21.068;2024-03-06T02:47:24;10.50;99.90
5061;DHT22;2549;52.128;21.068;2024-03-06T02:49:51;10.40;99.90
5061;DHT22;2549;52.128;21.068;2024-03-06T02:52:18;10.40;99.90
5061;DHT22;2549;52.128;21.068;2024-03-06T02:54:45;10.40;99.90
5061;DHT22;2549;52.128;21.068;2024-03-06T02:57:12;10.40;99.90
5061;DHT22;2549;52.128;21.068;2024-03-06T02:59:42;10.40;99.90
5061;DHT22;2549;52.128;21.068;2024-03-06T03:02:09;10.50;99.90
5061;DHT22;2549;52.128;21.068;2024-03-06T03:04:35;10.40;99.90
5061;DHT22;2549;52.128;21.068;2024-03-06T03:07:02;10.40;99.90
5061;DHT22;2549;52.128;21.068;2024-03-06T03:09:29;10.40;99.90
5061;DHT22;2549;52.128;21.068;2024-03-06T03:11:56;10.40;99.90
5061;DHT22;2549;52.128;21.068;2024-03-06T03:14:23;10.50;99.90
5061;DHT22;2549;52.128;21.068;2024-03-06T03:16:50;10.50;99.90
5061;DHT22;2549;52.128;21.068;2024-03-06T03:19:17;10.40;99.90
5061;DHT22;2549;52.128;21.068;2024-03-06T03:21:44;10.40;99.90
5061;DHT22;2549;52.128;21.068;2024-03-06T03:24:11;10.40;99.90
5061;DHT22;2549;52.128;21.068;2024-03-06T03:26:39;10.40;99.90
5061;DHT22;2549;52.128;21.068;2024-03-06T03:29:06;10.40;99.90
5061;DHT22;2549;52.128;21.068;2024-03-06T03:31:33;10.40;99.90
5061;DHT22;2549;52.128;21.068;2024-03-06T03:34:00;10.40;99.90
5061;DHT22;2549;52.128;21.068;2024-03-06T03:36:26;10.40;99.90
5061;DHT22;2549;52.128;21.068;2024-03-06T03:38:53;10.40;99.90
5061;DHT22;2549;52.128;21.068;2024-03-06T03:41:20;10.40;99.90
5061;DHT22;2549;52.128;21.068;2024-03-06T03:43:47;10.30;99.90
5061;DHT22;2549;52.128;21.068;2024-03-06T03:46:15;10.40;99.90
5061;DHT22;2549;52.128;21.068;2024-03-06T03:48:42;10.40;99.90
5061;DHT22;2549;52.128;21.068;2024-03-06T03:51:10;10.40;99.90
5061;DHT22;2549;52.128;21.068;2024-03-06T03:53:37;10.40;99.90
5061;DHT22;2549;52.128;21.068;2024-03-06T03:56:04;10.40;99.90
5061;DHT22;2549;52.128;21.068;2024-03-06T03:58:32;10.40;99.90
5061;DHT22;2549;52.128;21.068;2024-03-06T04:00:59;10.40;99.90
5061;DHT22;2549;52.128;21.068;2024-03-06T04:03:26;10.40;99.90
5061;DHT22;2549;52.128;21.068;2024-03-06T04:05:53;10.40;99.90
5061;DHT22;2549;52.128;21.068;2024-03-06T04:08:20;10.40;99.90
5061;DHT22;2549;52.128;21.068;2024-03-06T04:10:47;10.40;99.90
5061;DHT22;2549;52.128;21.068;2024-03-06T04:13:15;10.40;99.90
5061;DHT22;2549;52.128;21.068;2024-03-06T04:15:43;10.40;99.90
5061;DHT22;2549;52.128;21.068;2024-03-06T04:18:10;10.40;99.90
5061;DHT22;2549;52.128;21.068;2024-03-06T04:20:37;10.40;99.90
5061;DHT22;2549;52.128;21.068;2024-03-06T04:23:04;10.30;99.90
5061;DHT22;2549;52.128;21.068;2024-03-06T04:25:31;10.30;99.90
5061;DHT22;2549;52.128;21.068;2024-03-06T04:27:58;10.20;99.90
5061;DHT22;2549;52.128;21.068;2024-03-06T04:30:25;10.30;99.90
5061;DHT22;2549;52.128;21.068;2024-03-06T04:32:52;10.30;99.90
5061;DHT22;2549;52.128;21.068;2024-03-06T04:35:19;10.30;99.90
5061;DHT22;2549;52.128;21.068;2024-03-06T04:37:46;10.20;99.90
5061;DHT22;2549;52.128;21.068;2024-03-06T04:40:13;10.20;99.90
5061;DHT22;2549;52.128;21.068;2024-03-06T04:42:47;10.20;99.90
5061;DHT22;2549;52.128;21.068;2024-03-06T04:45:17;10.20;99.90
5061;DHT22;2549;52.128;21.068;2024-03-06T04:47:44;10.10;99.90
5061;DHT22;2549;52.128;21.068;2024-03-06T04:50:12;10.10;99.90
5061;DHT22;2549;52.128;21.068;2024-03-06T04:52:43;10.00;99.90
5061;DHT22;2549;52.128;21.068;2024-03-06T04:55:11;10.00;99.90
5061;DHT22;2549;52.128;21.068;2024-03-06T04:57:39;10.00;99.90
5061;DHT22;2549;52.128;21.068;2024-03-06T05:00:10;10.00;99.90
5061;DHT22;2549;52.128;21.068;2024-03-06T05:02:38;10.00;99.90
5061;DHT22;2549;52.128;21.068;2024-03-06T05:05:23;10.00;99.90
5061;DHT22;2549;52.128;21.068;2024-03-06T05:08:09;10.00;99.90
5061;DHT22;2549;52.128;21.068;2024-03-06T05:10:54;10.00;99.90
5061;DHT22;2549;52.128;21.068;2024-03-06T05:13:38;10.00;99.90
5061;DHT22;2549;52.128;21.068;2024-03-06T05:16:23;10.00;99.90
5061;DHT22;2549;52.128;21.068;2024-03-06T05:19:09;10.00;99.90
5061;DHT22;2549;52.128;21.068;2024-03-06T05:21:55;10.00;99.90
5061;DHT22;2549;52.128;21.068;2024-03-06T05:24:39;10.00;99.90
5061;DHT22;2549;52.128;21.068;2024-03-06T05:27:25;10.00;99.90
5061;DHT22;2549;52.128;21.068;2024-03-06T05:30:10;10.10;99.90
5061;DHT22;2549;52.128;21.068;2024-03-06T05:32:56;10.10;99.90
5061;DHT22;2549;52.128;21.068;2024-03-06T05:35:40;10.10;99.90
5061;DHT22;2549;52.128;21.068;2024-03-06T05:38:25;10.10;99.90
5061;DHT22;2549;52.128;21.068;2024-03-06T05:41:09;10.10;99.90
5061;DHT22;2549;52.128;21.068;2024-03-06T05:43:53;10.10;99.90
5061;DHT22;2549;52.128;21.068;2024-03-06T05:46:37;10.10;99.90
5061;DHT22;2549;52.128;21.068;2024-03-06T05:49:21;10.10;99.90
5061;DHT22;2549;52.128;21.068;2024-03-06T05:52:05;10.10;99.90
5061;DHT22;2549;52.128;21.068;2024-03-06T05:54:49;10.10;99.90
5061;DHT22;2549;52.128;21.068;2024-03-06T05:57:34;10.10;99.90
5061;DHT22;2549;52.128;21.068;2024-03-06T06:00:18;10.10;99.90
5061;DHT22;2549;52.128;21.068;2024-03-06T06:02:48;10.10;99.90
5061;DHT22;2549;52.128;21.068;2024-03-06T06:05:16;10.10;99.90
5061;DHT22;2549;52.128;21.068;2024-03-06T06:07:52;10.10;99.90
5061;DHT22;2549;52.128;21.068;2024-03-06T06:10:20;10.10;99.90
5061;DHT22;2549;52.128;21.068;2024-03-06T06:12:49;10.10;99.90
5061;DHT22;2549;52.128;21.068;2024-03-06T06:15:16;10.00;99.90
5061;DHT22;2549;52.128;21.068;2024-03-06T06:17:43;9.90;99.90
5061;DHT22;2549;52.128;21.068;2024-03-06T06:20:13;9.90;99.90
5061;DHT22;2549;52.128;21.068;2024-03-06T06:22:44;9.80;99.90
5061;DHT22;2549;52.128;21.068;2024-03-06T06:25:13;9.80;99.90
5061;DHT22;2549;52.128;21.068;2024-03-06T06:27:40;9.80;99.90
5061;DHT22;2549;52.128;21.068;2024-03-06T06:30:07;9.80;99.90
5061;DHT22;2549;52.128;21.068;2024-03-06T06:32:40;9.80;99.90
5061;DHT22;2549;52.128;21.068;2024-03-06T06:35:09;9.80;99.90
5061;DHT22;2549;52.128;21.068;2024-03-06T06:37:37;9.80;99.90
5061;DHT22;2549;52.128;21.068;2024-03-06T06:40:07;9.80;99.90
5061;DHT22;2549;52.128;21.068;2024-03-06T06:42:35;9.80;99.90
5061;DHT22;2549;52.128;21.068;2024-03-06T06:45:03;9.80;99.90
5061;DHT22;2549;52.128;21.068;2024-03-06T06:47:30;9.80;99.90
5061;DHT22;2549;52.128;21.068;2024-03-06T06:49:57;9.80;99.90
5061;DHT22;2549;52.128;21.068;2024-03-06T06:52:24;9.80;99.90
5061;DHT22;2549;52.128;21.068;2024-03-06T06:54:54;9.80;99.90
5061;DHT22;2549;52.128;21.068;2024-03-06T06:57:22;9.80;99.90
5061;DHT22;2549;52.128;21.068;2024-03-06T06:59:49;9.80;99.90
5061;DHT22;2549;52.128;21.068;2024-03-06T07:02:16;9.80;99.90
5061;DHT22;2549;52.128;21.068;2024-03-06T07:04:44;9.80;99.90
5061;DHT22;2549;52.128;21.068;2024-03-06T07:07:11;9.80;99.90
5061;DHT22;2549;52.128;21.068;2024-03-06T07:09:38;9.80;99.90
5061;DHT22;2549;52.128;21.068;2024-03-06T07:12:05;9.80;99.90
5061;DHT22;2549;52.128;21.068;2024-03-06T07:14:32;9.80;99.90
5061;DHT22;2549;52.128;21.068;2024-03-06T07:17:00;9.80;99.90
5061;DHT22;2549;52.128;21.068;2024-03-06T07:19:27;9.80;99.90
5061;DHT22;2549;52.128;21.068;2024-03-06T07:21:54;9.90;99.90
5061;DHT22;2549;52.128;21.068;2024-03-06T07:24:21;9.90;99.90
5061;DHT22;2549;52.128;21.068;2024-03-06T07:26:48;9.80;99.90
5061;DHT22;2549;52.128;21.068;2024-03-06T07:29:15;9.80;99.90
5061;DHT22;2549;52.128;21.068;2024-03-06T07:31:42;9.80;99.90
5061;DHT22;2549;52.128;21.068;2024-03-06T07:34:10;9.80;99.90
5061;DHT22;2549;52.128;21.068;2024-03-06T07:36:38;9.80;99.90
5061;DHT22;2549;52.128;21.068;2024-03-06T07:39:05;9.90;99.90
5061;DHT22;2549;52.128;21.068;2024-03-06T07:41:31;9.90;99.90
5061;DHT22;2549;52.128;21.068;2024-03-06T07:44:02;9.90;99.90
5061;DHT22;2549;52.128;21.068;2024-03-06T07:46:30;10.00;99.90
5061;DHT22;2549;52.128;21.068;2024-03-06T07:48:57;10.00;99.90
5061;DHT22;2549;52.128;21.068;2024-03-06T07:51:24;9.90;99.90
5061;DHT22;2549;52.128;21.068;2024-03-06T07:53:51;9.90;99.90
5061;DHT22;2549;52.128;21.068;2024-03-06T07:56:19;10.00;99.90
5061;DHT22;2549;52.128;21.068;2024-03-06T07:58:46;10.00;99.90
5061;DHT22;2549;52.128;21.068;2024-03-06T08:01:13;10.00;99.90
5061;DHT22;2549;52.128;21.068;2024-03-06T08:03:40;10.10;99.90
5061;DHT22;2549;52.128;21.068;2024-03-06T08:06:10;10.10;99.90
5061;DHT22;2549;52.128;21.068;2024-03-06T08:08:40;10.10;99.90
5061;DHT22;2549;52.128;21.068;2024-03-06T08:11:08;10.00;99.90
5061;DHT22;2549;52.128;21.068;2024-03-06T08:13:38;9.90;99.90
5061;DHT22;2549;52.128;21.068;2024-03-06T08:16:06;9.90;99.90
5061;DHT22;2549;52.128;21.068;2024-03-06T08:18:34;9.80;99.90
5061;DHT22;2549;52.128;21.068;2024-03-06T08:21:01;9.80;99.90
5061;DHT22;2549;52.128;21.068;2024-03-06T08:23:30;9.80;99.90
5061;DHT22;2549;52.128;21.068;2024-03-06T08:25:57;9.70;99.90
5061;DHT22;2549;52.128;21.068;2024-03-06T08:28:24;9.80;99.90
5061;DHT22;2549;52.128;21.068;2024-03-06T08:30:52;9.80;99.90
5061;DHT22;2549;52.128;21.068;2024-03-06T08:33:19;9.80;99.90
5061;DHT22;2549;52.128;21.068;2024-03-06T08:35:48;9.80;99.90
5061;DHT22;2549;52.128;21.068;2024-03-06T08:38:15;9.80;99.90
5061;DHT22;2549;52.128;21.068;2024-03-06T08:40:44;9.80;99.90
5061;DHT22;2549;52.128;21.068;2024-03-06T08:43:13;9.80;99.90
5061;DHT22;2549;52.128;21.068;2024-03-06T08:45:42;9.80;99.90
5061;DHT22;2549;52.128;21.068;2024-03-06T08:48:09;9.80;99.90
5061;DHT22;2549;52.128;21.068;2024-03-06T08:50:37;9.80;99.90
5061;DHT22;2549;52.128;21.068;2024-03-06T08:53:04;9.80;99.90
5061;DHT22;2549;52.128;21.068;2024-03-06T08:55:31;9.80;99.90
5061;DHT22;2549;52.128;21.068;2024-03-06T08:57:58;9.80;99.90
5061;DHT22;2549;52.128;21.068;2024-03-06T09:00:28;9.80;99.90
5061;DHT22;2549;52.128;21.068;2024-03-06T09:02:55;9.70;99.90
5061;DHT22;2549;52.128;21.068;2024-03-06T09:05:22;9.70;99.90
5061;DHT22;2549;52.128;21.068;2024-03-06T09:07:49;9.60;99.90
5061;DHT22;2549;52.128;21.068;2024-03-06T09:10:16;9.60;99.90
5061;DHT22;2549;52.128;21.068;2024-03-06T09:12:45;9.60;99.90
5061;DHT22;2549;52.128;21.068;2024-03-06T09:15:14;9.70;99.90
5061;DHT22;2549;52.128;21.068;2024-03-06T09:17:41;9.70;99.90
5061;DHT22;2549;52.128;21.068;2024-03-06T09:20:09;9.70;99.90
5061;DHT22;2549;52.128;21.068;2024-03-06T09:22:42;9.70;99.90
5061;DHT22;2549;52.128;21.068;2024-03-06T09:25:10;9.70;99.90
5061;DHT22;2549;52.128;21.068;2024-03-06T09:27:43;9.80;99.90
5061;DHT22;2549;52.128;21.068;2024-03-06T09:30:10;9.70;99.90
5061;DHT22;2549;52.128;21.068;2024-03-06T09:32:40;9.70;99.90
5061;DHT22;2549;52.128;21.068;2024-03-06T09:35:08;9.60;99.90
5061;DHT22;2549;52.128;21.068;2024-03-06T09:37:35;9.60;99.90
5061;DHT22;2549;52.128;21.068;2024-03-06T09:40:02;9.60;99.90
5061;DHT22;2549;52.128;21.068;2024-03-06T09:42:29;9.70;99.90
5061;DHT22;2549;52.128;21.068;2024-03-06T09:44:57;9.60;99.90
5061;DHT22;2549;52.128;21.068;2024-03-06T09:47:24;9.60;99.90
5061;DHT22;2549;52.128;21.068;2024-03-06T09:49:52;9.60;99.90
5061;DHT22;2549;52.128;21.068;2024-03-06T09:52:24;9.60;99.90
5061;DHT22;2549;52.128;21.068;2024-03-06T09:54:55;9.50;99.90
5061;DHT22;2549;52.128;21.068;2024-03-06T09:57:23;9.50;99.90
5061;DHT22;2549;52.128;21.068;2024-03-06T09:59:51;9.50;99.90
5061;DHT22;2549;52.128;21.068;2024-03-06T10:04:54;9.50;99.90
5061;DHT22;2549;52.128;21.068;2024-03-06T10:07:21;9.50;99.90
5061;DHT22;2549;52.128;21.068;2024-03-06T10:09:48;9.60;99.90
5061;DHT22;2549;52.128;21.068;2024-03-06T10:12:17;9.60;99.90
5061;DHT22;2549;52.128;21.068;2024-03-06T10:14:54;9.60;99.90
5061;DHT22;2549;52.128;21.068;2024-03-06T10:17:23;9.60;99.90
5061;DHT22;2549;52.128;21.068;2024-03-06T10:19:50;9.50;99.90
5061;DHT22;2549;52.128;21.068;2024-03-06T10:22:19;9.50;99.90
5061;DHT22;2549;52.128;21.068;2024-03-06T10:24:47;9.50;99.90
5061;DHT22;2549;52.128;21.068;2024-03-06T10:27:16;9.50;99.90
5061;DHT22;2549;52.128;21.068;2024-03-06T10:29:44;9.40;99.90
5061;DHT22;2549;52.128;21.068;2024-03-06T10:32:16;9.40;99.90
5061;DHT22;2549;52.128;21.068;2024-03-06T10:34:45;9.40;99.90
5061;DHT22;2549;52.128;21.068;2024-03-06T10:37:13;9.30;99.90
5061;DHT22;2549;52.128;21.068;2024-03-06T10:39:42;9.30;99.90
5061;DHT22;2549;52.128;21.068;2024-03-06T10:42:13;9.30;99.90
5061;DHT22;2549;52.128;21.068;2024-03-06T10:44:51;9.30;99.90
5061;DHT22;2549;52.128;21.068;2024-03-06T10:47:19;9.40;99.90
5061;DHT22;2549;52.128;21.068;2024-03-06T10:49:47;9.40;99.90
5061;DHT22;2549;52.128;21.068;2024-03-06T10:52:15;9.40;99.90
5061;DHT22;2549;52.128;21.068;2024-03-06T10:54:46;9.40;99.90
5061;DHT22;2549;52.128;21.068;2024-03-06T10:57:14;9.40;99.90
5061;DHT22;2549;52.128;21.068;2024-03-06T10:59:42;9.40;99.90
5061;DHT22;2549;52.128;21.068;2024-03-06T11:02:11;9.40;99.90
5061;DHT22;2549;52.128;21.068;2024-03-06T11:04:40;9.40;99.90
5061;DHT22;2549;52.128;21.068;2024-03-06T11:07:08;9.30;99.90
5061;DHT22;2549;52.128;21.068;2024-03-06T11:09:41;9.30;99.90
5061;DHT22;2549;52.128;21.068;2024-03-06T11:12:08;9.30;99.90
5061;DHT22;2549;52.128;21.068;2024-03-06T11:14:39;9.30;99.90
5061;DHT22;2549;52.128;21.068;2024-03-06T11:17:09;9.30;99.90
5061;DHT22;2549;52.128;21.068;2024-03-06T11:26:02;9.30;99.90
5061;DHT22;2549;52.128;21.068;2024-03-06T11:28:35;9.30;99.90
5061;DHT22;2549;52.128;21.068;2024-03-06T11:31:04;9.30;99.90
5061;DHT22;2549;52.128;21.068;2024-03-06T11:33:42;9.30;99.90
5061;DHT22;2549;52.128;21.068;2024-03-06T11:36:24;9.30;99.90
5061;DHT22;2549;52.128;21.068;2024-03-06T11:41:29;9.40;99.90
5061;DHT22;2549;52.128;21.068;2024-03-06T11:43:59;9.40;99.90
5061;DHT22;2549;52.128;21.068;2024-03-06T11:46:48;9.40;99.90
5061;DHT22;2549;52.128;21.068;2024-03-06T11:49:22;9.40;99.70
5061;DHT22;2549;52.128;21.068;2024-03-06T11:51:54;9.50;99.90
5061;DHT22;2549;52.128;21.068;2024-03-06T11:54:22;9.50;99.90
5061;DHT22;2549;52.128;21.068;2024-03-06T11:56:57;9.60;99.90
5061;DHT22;2549;52.128;21.068;2024-03-06T11:59:25;9.60;99.70
5061;DHT22;2549;52.128;21.068;2024-03-06T12:01:57;9.60;99.40
5061;DHT22;2549;52.128;21.068;2024-03-06T12:04:24;9.60;99.40
5061;DHT22;2549;52.128;21.068;2024-03-06T12:06:51;9.60;99.40
5061;DHT22;2549;52.128;21.068;2024-03-06T12:09:19;9.60;99.60
5061;DHT22;2549;52.128;21.068;2024-03-06T12:11:46;9.70;99.60
5061;DHT22;2549;52.128;21.068;2024-03-06T12:14:15;9.70;99.40
5061;DHT22;2549;52.128;21.068;2024-03-06T12:16:44;9.80;99.30
5061;DHT22;2549;52.128;21.068;2024-03-06T12:19:20;9.80;99.20
5061;DHT22;2549;52.128;21.068;2024-03-06T12:21:48;9.80;98.90
5061;DHT22;2549;52.128;21.068;2024-03-06T12:24:16;9.80;99.10
5061;DHT22;2549;52.128;21.068;2024-03-06T12:26:46;9.80;98.90
5061;DHT22;2549;52.128;21.068;2024-03-06T12:29:17;9.80;99.00
5061;DHT22;2549;52.128;21.068;2024-03-06T12:31:45;9.80;98.70
5061;DHT22;2549;52.128;21.068;2024-03-06T12:34:15;9.80;98.30
5061;DHT22;2549;52.128;21.068;2024-03-06T12:36:45;9.80;98.20
5061;DHT22;2549;52.128;21.068;2024-03-06T12:39:15;9.80;98.20
5061;DHT22;2549;52.128;21.068;2024-03-06T12:41:45;9.80;98.30
5061;DHT22;2549;52.128;21.068;2024-03-06T12:44:12;9.80;98.40
5061;DHT22;2549;52.128;21.068;2024-03-06T12:46:39;9.90;98.30
5061;DHT22;2549;52.128;21.068;2024-03-06T12:49:06;10.00;97.60
5061;DHT22;2549;52.128;21.068;2024-03-06T12:51:32;10.00;97.50
5061;DHT22;2549;52.128;21.068;2024-03-06T12:54:01;10.10;97.40
5061;DHT22;2549;52.128;21.068;2024-03-06T12:56:30;10.20;97.10
5061;DHT22;2549;52.128;21.068;2024-03-06T12:58:57;10.20;96.90
5061;DHT22;2549;52.128;21.068;2024-03-06T13:01:24;10.20;96.50
5061;DHT22;2549;52.128;21.068;2024-03-06T13:03:51;10.20;96.70
5061;DHT22;2549;52.128;21.068;2024-03-06T13:06:18;10.20;96.90
5061;DHT22;2549;52.128;21.068;2024-03-06T13:08:45;10.20;96.80
5061;DHT22;2549;52.128;21.068;2024-03-06T13:11:12;10.30;96.70
5061;DHT22;2549;52.128;21.068;2024-03-06T13:13:39;10.30;96.60
5061;DHT22;2549;52.128;21.068;2024-03-06T13:16:06;10.30;96.70
5061;DHT22;2549;52.128;21.068;2024-03-06T13:18:35;10.30;96.50
5061;DHT22;2549;52.128;21.068;2024-03-06T13:21:02;10.30;96.20
5061;DHT22;2549;52.128;21.068;2024-03-06T13:23:29;10.30;95.80
5061;DHT22;2549;52.128;21.068;2024-03-06T13:25:57;10.20;95.80
5061;DHT22;2549;52.128;21.068;2024-03-06T13:28:25;10.10;95.80
5061;DHT22;2549;52.128;21.068;2024-03-06T13:30:52;10.10;96.00
5061;DHT22;2549;52.128;21.068;2024-03-06T13:33:19;10.10;96.00
5061;DHT22;2549;52.128;21.068;2024-03-06T13:35:47;10.10;95.90
5061;DHT22;2549;52.128;21.068;2024-03-06T13:38:14;10.00;95.80
5061;DHT22;2549;52.128;21.068;2024-03-06T13:40:41;10.00;95.70
5061;DHT22;2549;52.128;21.068;2024-03-06T13:43:08;10.00;95.40
5061;DHT22;2549;52.128;21.068;2024-03-06T13:45:35;9.90;96.00
5061;DHT22;2549;52.128;21.068;2024-03-06T13:48:04;9.90;95.80
5061;DHT22;2549;52.128;21.068;2024-03-06T13:50:40;9.90;95.60
5061;DHT22;2549;52.128;21.068;2024-03-06T13:53:07;9.90;95.50
5061;DHT22;2549;52.128;21.068;2024-03-06T13:55:34;9.90;95.00
5061;DHT22;2549;52.128;21.068;2024-03-06T13:58:02;9.80;95.00
5061;DHT22;2549;52.128;21.068;2024-03-06T14:00:31;9.90;95.20
5061;DHT22;2549;52.128;21.068;2024-03-06T14:02:57;9.90;95.20
5061;DHT22;2549;52.128;21.068;2024-03-06T14:05:24;9.90;95.20
5061;DHT22;2549;52.128;21.068;2024-03-06T14:07:52;9.90;95.40
5061;DHT22;2549;52.128;21.068;2024-03-06T14:10:19;10.00;94.80
5061;DHT22;2549;52.128;21.068;2024-03-06T14:12:48;10.00;94.60
5061;DHT22;2549;52.128;21.068;2024-03-06T14:15:19;10.10;94.60
5061;DHT22;2549;52.128;21.068;2024-03-06T14:17:46;10.10;94.60
5061;DHT22;2549;52.128;21.068;2024-03-06T14:20:13;10.10;94.60
5061;DHT22;2549;52.128;21.068;2024-03-06T14:22:42;10.10;94.40
5061;DHT22;2549;52.128;21.068;2024-03-06T14:25:09;10.10;94.50
5061;DHT22;2549;52.128;21.068;2024-03-06T14:27:37;10.00;94.40
5061;DHT22;2549;52.128;21.068;2024-03-06T14:30:05;10.00;94.30
5061;DHT22;2549;52.128;21.068;2024-03-06T14:32:37;10.00;94.30
5061;DHT22;2549;52.128;21.068;2024-03-06T14:35:05;10.00;93.80
5061;DHT22;2549;52.128;21.068;2024-03-06T14:37:32;10.00;93.80
5061;DHT22;2549;52.128;21.068;2024-03-06T14:39:59;10.00;93.80
5061;DHT22;2549;52.128;21.068;2024-03-06T14:42:32;10.00;93.90
5061;DHT22;2549;52.128;21.068;2024-03-06T14:44:59;10.00;93.70
5061;DHT22;2549;52.128;21.068;2024-03-06T14:47:26;10.00;93.70
5061;DHT22;2549;52.128;21.068;2024-03-06T14:49:54;10.00;93.60
5061;DHT22;2549;52.128;21.068;2024-03-06T14:52:21;10.00;93.30
5061;DHT22;2549;52.128;21.068;2024-03-06T14:54:48;10.10;93.30
5061;DHT22;2549;52.128;21.068;2024-03-06T14:57:15;10.10;93.30
5061;DHT22;2549;52.128;21.068;2024-03-06T14:59:41;10.10;93.10
5061;DHT22;2549;52.128;21.068;2024-03-06T15:02:08;10.10;92.50
5061;DHT22;2549;52.128;21.068;2024-03-06T15:04:35;10.00;92.70
5061;DHT22;2549;52.128;21.068;2024-03-06T15:07:04;10.00;92.60
5061;DHT22;2549;52.128;21.068;2024-03-06T15:09:31;10.00;92.50
5061;DHT22;2549;52.128;21.068;2024-03-06T15:11:58;10.00;92.60
5061;DHT22;2549;52.128;21.068;2024-03-06T15:14:26;10.00;92.50
5061;DHT22;2549;52.128;21.068;2024-03-06T15:16:54;10.00;92.40
5061;DHT22;2549;52.128;21.068;2024-03-06T15:19:21;10.00;92.40
5061;DHT22;2549;52.128;21.068;2024-03-06T15:21:48;10.00;92.50
5061;DHT22;2549;52.128;21.068;2024-03-06T15:24:15;10.00;92.50
5061;DHT22;2549;52.128;21.068;2024-03-06T15:26:42;10.00;92.50
5061;DHT22;2549;52.128;21.068;2024-03-06T15:29:10;10.00;92.40
5061;DHT22;2549;52.128;21.068;2024-03-06T15:31:38;9.90;92.80
5061;DHT22;2549;52.128;21.068;2024-03-06T15:34:06;9.90;92.70
5061;DHT22;2549;52.128;21.068;2024-03-06T15:36:33;9.80;92.70
5061;DHT22;2549;52.128;21.068;2024-03-06T15:39:00;9.80;92.90
5061;DHT22;2549;52.128;21.068;2024-03-06T15:41:28;9.80;93.00
5061;DHT22;2549;52.128;21.068;2024-03-06T15:43:55;9.80;93.00
5061;DHT22;2549;52.128;21.068;2024-03-06T15:46:21;9.80;93.00
5061;DHT22;2549;52.128;21.068;2024-03-06T15:48:50;9.80;93.00
5061;DHT22;2549;52.128;21.068;2024-03-06T15:51:16;9.70;92.60
5061;DHT22;2549;52.128;21.068;2024-03-06T15:53:43;9.70;92.70
5061;DHT22;2549;52.128;21.068;2024-03-06T15:56:10;9.70;92.50
5061;DHT22;2549;52.128;21.068;2024-03-06T15:58:37;9.60;92.40
5061;DHT22;2549;52.128;21.068;2024-03-06T16:01:04;9.60;92.60
5061;DHT22;2549;52.128;21.068;2024-03-06T16:03:32;9.60;92.60
5061;DHT22;2549;52.128;21.068;2024-03-06T16:05:59;9.60;92.10
5061;DHT22;2549;52.128;21.068;2024-03-06T16:08:41;9.60;91.70
5061;DHT22;2549;52.128;21.068;2024-03-06T16:11:09;9.50;91.20
5061;DHT22;2549;52.128;21.068;2024-03-06T16:13:37;9.50;91.00
5061;DHT22;2549;52.128;21.068;2024-03-06T16:16:05;9.50;91.00
5061;DHT22;2549;52.128;21.068;2024-03-06T16:18:32;9.50;90.90